»·PEaware :: AAL225 KSLC-CYVR

AAL225 :: KSLC-CYVR

FLIGHT INFORMATION

Flight Status: Arrived
Operator:
American Airlines
More flights by this operator :: More flights under this callsign
Pilot: Michael R. (16974)
Aircraft: AIRBUS A320
(A320)
More flights by this aircraft type
Origin: KSLC Salt Lake City Intl
United States
Destination: CYVR Vancouver Intl
Canada
More flights between these airports :: More routes between these airports
Route: CGULL1 TWF BOI METOW GRIZZ6
File this flight plan on PilotEdge
Remarks:
Altitude:
(Current/Filed)
38,000ft
Speed:
(Current/Filed)
454kts
Departed: 11-Aug-18 02:06 PM
Arrived: 11-Aug-18 04:03 PM
Distance/Time
Traveled:
693nm/1:57
Distance/Time
To Go:
Arrived

Flight Plot

Page will automatically refresh every two minutes.

Flight plan parsing failed; only flown route is shown


Map Options




Map Legend


Flown Route
Filed Route
Departure Airport
Arrival Airport
Navaid (VOR, NDB)
Fix

Horizontal Profiles

Position Reports

Time Latitude Longitude Heading Altitude Ground
Speed
11-Aug-18 13:40 40.788553 -111.984284 252 4235ft 0kts
11-Aug-18 13:41 40.788553 -111.984284 252 4235ft 0kts
11-Aug-18 13:42 40.788553 -111.984284 252 4235ft 0kts
11-Aug-18 13:43 40.788553 -111.984284 252 4235ft 0kts
11-Aug-18 13:44 40.788553 -111.984284 252 4235ft 0kts
11-Aug-18 13:45 40.788553 -111.984284 252 4235ft 0kts
11-Aug-18 13:46 40.788553 -111.984284 252 4235ft 0kts
11-Aug-18 13:47 40.788566 -111.984227 252 4235ft 2kts
11-Aug-18 13:48 40.788693 -111.983482 303 4235ft 2kts
11-Aug-18 13:49 40.788403 -111.983352 347 4235ft 0kts
11-Aug-18 13:50 40.788403 -111.983352 347 4235ft 0kts
11-Aug-18 13:51 40.788403 -111.983352 347 4235ft 0kts
11-Aug-18 13:52 40.788403 -111.983352 347 4235ft 0kts
11-Aug-18 13:53 40.788403 -111.983352 347 4235ft 0kts
11-Aug-18 13:54 40.788403 -111.983352 347 4235ft 0kts
11-Aug-18 13:55 40.788403 -111.983352 347 4235ft 0kts
11-Aug-18 13:56 40.788554 -111.983396 347 4235ft 4kts
11-Aug-18 13:57 40.790958 -111.986168 354 4235ft 0kts
11-Aug-18 13:58 40.790958 -111.986168 354 4235ft 0kts
11-Aug-18 13:59 40.791216 -111.986229 343 4235ft 4kts
11-Aug-18 14:00 40.791270 -111.989713 265 4235ft 18kts
11-Aug-18 14:01 40.789628 -111.994975 175 4235ft 13kts
11-Aug-18 14:02 40.784966 -111.994430 175 4235ft 20kts
11-Aug-18 14:03 40.778549 -111.993681 174 4235ft 26kts
11-Aug-18 14:04 40.775274 -111.993976 259 4235ft 0kts
11-Aug-18 14:05 40.775274 -111.993976 259 4235ft 0kts
11-Aug-18 14:06 40.775653 -111.995525 348 4235ft 15kts
11-Aug-18 14:07 40.788980 -111.997127 354 4235ft 148kts
11-Aug-18 14:08 40.837880 -112.016421 331 5430ft 212kts
11-Aug-18 14:09 40.895887 -112.057843 331 7928ft 263kts
11-Aug-18 14:10 40.963159 -112.106695 318 10293ft 314kts
11-Aug-18 14:11 41.002612 -112.212782 292 13265ft 333kts
11-Aug-18 14:12 41.038874 -112.327426 292 16232ft 347kts
11-Aug-18 14:13 41.081836 -112.443330 313 18986ft 363kts
11-Aug-18 14:14 41.163920 -112.507598 326 21356ft 378kts
11-Aug-18 14:15 41.249147 -112.591629 321 23669ft 391kts
11-Aug-18 14:16 41.325868 -112.688405 310 25744ft 401kts
11-Aug-18 14:17 41.401899 -112.799977 309 27712ft 413kts
11-Aug-18 14:18 41.477928 -112.916042 308 29701ft 420kts
11-Aug-18 14:19 41.553714 -113.032478 308 31983ft 412kts
11-Aug-18 14:20 41.627591 -113.146359 308 33895ft 407kts
11-Aug-18 14:21 41.701188 -113.260220 308 35602ft 403kts
11-Aug-18 14:22 41.773858 -113.373060 308 37052ft 401kts
11-Aug-18 14:23 41.846453 -113.486225 308 38080ft 407kts
11-Aug-18 14:24 41.922642 -113.605562 308 38090ft 440kts
11-Aug-18 14:25 42.000559 -113.728012 307 38085ft 455kts
11-Aug-18 14:26 42.082674 -113.857512 307 38084ft 455kts
11-Aug-18 14:27 42.162112 -113.983323 307 38081ft 455kts
11-Aug-18 14:28 42.243992 -114.112993 308 38088ft 455kts
11-Aug-18 14:29 42.325480 -114.242467 307 38098ft 455kts
11-Aug-18 14:30 42.407256 -114.372959 307 38099ft 455kts
11-Aug-18 14:31 42.488591 -114.503167 308 38099ft 455kts
11-Aug-18 14:32 42.571538 -114.632369 308 38098ft 455kts
11-Aug-18 14:33 42.650038 -114.757407 307 38097ft 455kts
11-Aug-18 14:34 42.731820 -114.888274 307 38092ft 455kts
11-Aug-18 14:35 42.813503 -115.018775 307 38085ft 455kts
11-Aug-18 14:36 42.895575 -115.149677 306 38034ft 455kts
11-Aug-18 14:37 42.975445 -115.276891 305 38010ft 457kts
11-Aug-18 14:38 43.058269 -115.408613 305 38016ft 461kts
11-Aug-18 14:39 43.139268 -115.537194 305 38004ft 460kts
11-Aug-18 14:40 43.217683 -115.661488 304 38006ft 460kts
11-Aug-18 14:41 43.300532 -115.792599 305 38010ft 461kts
11-Aug-18 14:42 43.384255 -115.924890 305 38006ft 460kts
11-Aug-18 14:43 43.468187 -116.057350 305 37994ft 461kts
11-Aug-18 14:44 43.553343 -116.187705 313 37992ft 466kts
11-Aug-18 14:45 43.665232 -116.282230 325 37977ft 475kts
11-Aug-18 14:46 43.780024 -116.371335 325 37966ft 475kts
11-Aug-18 14:47 43.894644 -116.461124 325 37971ft 475kts
11-Aug-18 14:48 44.009085 -116.551400 325 37982ft 475kts
11-Aug-18 14:49 44.114302 -116.634822 325 37965ft 475kts
11-Aug-18 14:50 44.220403 -116.719398 324 37961ft 474kts
11-Aug-18 14:51 44.329410 -116.806740 324 37964ft 474kts
11-Aug-18 14:52 44.443750 -116.898881 324 37964ft 474kts
11-Aug-18 14:53 44.557424 -116.990993 324 37964ft 475kts
11-Aug-18 14:54 44.671160 -117.083667 323 37974ft 476kts
11-Aug-18 14:55 44.784952 -117.176927 323 38025ft 476kts
11-Aug-18 14:56 44.898821 -117.270763 323 38040ft 476kts
11-Aug-18 14:57 45.012888 -117.365269 322 38041ft 479kts
11-Aug-18 14:58 45.125497 -117.459115 321 38028ft 489kts
11-Aug-18 14:59 45.238788 -117.553990 321 38023ft 489kts
11-Aug-18 15:00 45.352831 -117.650008 321 38018ft 488kts
11-Aug-18 15:01 45.463980 -117.743998 321 38027ft 488kts
11-Aug-18 15:02 45.579492 -117.842206 321 38030ft 487kts
11-Aug-18 15:03 45.695644 -117.941534 321 38032ft 488kts
11-Aug-18 15:04 45.809173 -118.039152 321 38037ft 490kts
11-Aug-18 15:05 45.925491 -118.139692 321 38033ft 489kts
11-Aug-18 15:06 46.041145 -118.240195 321 38035ft 489kts
11-Aug-18 15:07 46.152301 -118.337287 321 38019ft 489kts
11-Aug-18 15:08 46.263628 -118.435026 321 38020ft 489kts
11-Aug-18 15:09 46.378829 -118.536676 321 38022ft 488kts
11-Aug-18 15:10 46.493404 -118.638309 321 38008ft 489kts
11-Aug-18 15:11 46.603511 -118.736351 320 37995ft 488kts
11-Aug-18 15:12 46.717875 -118.838655 320 37977ft 488kts
11-Aug-18 15:13 46.833116 -118.942256 319 37978ft 488kts
11-Aug-18 15:14 46.948394 -119.046528 318 37982ft 497kts
11-Aug-18 15:15 47.067534 -119.155054 319 37985ft 512kts
11-Aug-18 15:16 47.177074 -119.255117 319 37965ft 509kts
11-Aug-18 15:17 47.296578 -119.364913 319 37963ft 509kts
11-Aug-18 15:18 47.415831 -119.475069 319 37958ft 509kts
11-Aug-18 15:19 47.533495 -119.584333 319 37959ft 508kts
11-Aug-18 15:20 47.650596 -119.693570 318 37966ft 506kts
11-Aug-18 15:21 47.767426 -119.802964 318 37966ft 506kts
11-Aug-18 15:22 47.884643 -119.913366 318 37958ft 508kts
11-Aug-18 15:23 48.002653 -120.025088 318 37963ft 507kts
11-Aug-18 15:24 48.110537 -120.139210 300 37941ft 483kts
11-Aug-18 15:25 48.162354 -120.306221 273 37945ft 441kts
11-Aug-18 15:26 48.192639 -120.480961 273 37942ft 440kts
11-Aug-18 15:27 48.222479 -120.652996 272 36095ft 429kts
11-Aug-18 15:28 48.251650 -120.823510 273 32598ft 436kts
11-Aug-18 15:29 48.281104 -120.997474 275 30046ft 448kts
11-Aug-18 15:30 48.308725 -121.160449 277 28785ft 409kts
11-Aug-18 15:31 48.334686 -121.316042 278 27468ft 412kts
11-Aug-18 15:32 48.362356 -121.483272 278 26070ft 415kts
11-Aug-18 15:33 48.389671 -121.649952 278 25001ft 418kts
11-Aug-18 15:34 48.438871 -121.797857 300 23156ft 402kts
11-Aug-18 15:35 48.500804 -121.925502 300 20983ft 381kts
11-Aug-18 15:36 48.558639 -122.045619 301 18975ft 363kts
11-Aug-18 15:37 48.610403 -122.168797 290 16923ft 340kts
11-Aug-18 15:38 48.644353 -122.281827 290 15198ft 332kts
11-Aug-18 15:39 48.680464 -122.402724 290 13471ft 304kts
11-Aug-18 15:40 48.712063 -122.508253 295 12025ft 291kts
11-Aug-18 15:41 48.758962 -122.603087 305 11059ft 280kts
11-Aug-18 15:42 48.803555 -122.689855 304 10212ft 281kts
11-Aug-18 15:43 48.847999 -122.776675 304 9363ft 278kts
11-Aug-18 15:44 48.893868 -122.866641 304 8487ft 276kts
11-Aug-18 15:45 48.938295 -122.953764 305 7578ft 267kts
11-Aug-18 15:46 48.997025 -123.002753 1 6574ft 268kts
11-Aug-18 15:47 49.064526 -122.977834 53 5454ft 262kts
11-Aug-18 15:48 49.072528 -122.876695 99 4488ft 242kts
11-Aug-18 15:49 49.062104 -122.783701 100 4164ft 196kts
11-Aug-18 15:50 49.053522 -122.708659 102 3544ft 175kts
11-Aug-18 15:51 49.073139 -122.653707 10 2992ft 179kts
11-Aug-18 15:52 49.106481 -122.691536 302 2959ft 164kts
11-Aug-18 15:53 49.132540 -122.747950 304 2928ft 161kts
11-Aug-18 15:54 49.157407 -122.801855 305 2914ft 163kts
11-Aug-18 15:55 49.166307 -122.855074 278 2794ft 166kts
11-Aug-18 15:56 49.174629 -122.934801 279 2299ft 166kts
11-Aug-18 15:57 49.181122 -122.991561 279 1891ft 165kts
11-Aug-18 15:58 49.181122 -122.991561 279 1891ft 165kts
11-Aug-18 15:59 49.181122 -122.991561 279 1891ft 165kts
11-Aug-18 16:00 49.181122 -122.991561 279 1891ft 165kts
11-Aug-18 16:01 49.183079 -123.008336 280 1185ft 211kts
11-Aug-18 16:02 49.191546 -123.082173 280 1148ft 244kts
11-Aug-18 16:03 49.199954 -123.155336 280 138ft 208kts
11-Aug-18 16:04 49.204737 -123.198812 285 22ft 0kts

Navigation Log

Ident Type
Flight plan parsing failed, navigation log unavailable